sensor_id;sensor_type;location;lat;lon;timestamp;P1;durP1;ratioP1;P2;durP2;ratioP2
26600;SDS011;14241;49.260;10.496;2023-05-10T00:00:27;3.67;;;1.30;;
26600;SDS011;14241;49.260;10.496;2023-05-10T00:02:52;1.40;;;1.02;;
26600;SDS011;14241;49.260;10.496;2023-05-10T00:05:17;1.45;;;1.20;;
26600;SDS011;14241;49.260;10.496;2023-05-10T00:07:43;1.75;;;1.33;;
26600;SDS011;14241;49.260;10.496;2023-05-10T00:10:11;1.85;;;1.63;;
26600;SDS011;14241;49.260;10.496;2023-05-10T00:12:36;1.88;;;1.17;;
26600;SDS011;14241;49.260;10.496;2023-05-10T00:15:02;2.50;;;1.05;;
26600;SDS011;14241;49.260;10.496;2023-05-10T00:17:27;1.23;;;1.05;;
26600;SDS011;14241;49.260;10.496;2023-05-10T00:19:53;2.53;;;1.30;;
26600;SDS011;14241;49.260;10.496;2023-05-10T00:22:18;1.97;;;1.33;;
26600;SDS011;14241;49.260;10.496;2023-05-10T00:24:43;2.20;;;1.40;;
26600;SDS011;14241;49.260;10.496;2023-05-10T00:27:08;2.33;;;1.23;;
26600;SDS011;14241;49.260;10.496;2023-05-10T00:29:34;3.30;;;1.17;;
26600;SDS011;14241;49.260;10.496;2023-05-10T00:31:59;2.03;;;1.20;;
26600;SDS011;14241;49.260;10.496;2023-05-10T00:34:24;2.42;;;1.60;;
26600;SDS011;14241;49.260;10.496;2023-05-10T00:36:50;2.07;;;1.30;;
26600;SDS011;14241;49.260;10.496;2023-05-10T00:39:15;1.63;;;1.20;;
26600;SDS011;14241;49.260;10.496;2023-05-10T00:41:40;2.63;;;1.33;;
26600;SDS011;14241;49.260;10.496;2023-05-10T00:44:05;1.88;;;1.20;;
26600;SDS011;14241;49.260;10.496;2023-05-10T00:46:31;3.03;;;1.40;;
26600;SDS011;14241;49.260;10.496;2023-05-10T00:48:56;3.63;;;1.30;;
26600;SDS011;14241;49.260;10.496;2023-05-10T00:51:22;1.45;;;1.30;;
26600;SDS011;14241;49.260;10.496;2023-05-10T00:53:47;3.30;;;1.33;;
26600;SDS011;14241;49.260;10.496;2023-05-10T00:56:13;1.88;;;1.27;;
26600;SDS011;14241;49.260;10.496;2023-05-10T00:58:39;2.20;;;1.27;;
26600;SDS011;14241;49.260;10.496;2023-05-10T01:01:04;2.05;;;1.15;;
26600;SDS011;14241;49.260;10.496;2023-05-10T01:03:29;1.50;;;1.17;;
26600;SDS011;14241;49.260;10.496;2023-05-10T01:05:55;2.55;;;1.05;;
26600;SDS011;14241;49.260;10.496;2023-05-10T01:08:20;3.10;;;1.40;;
26600;SDS011;14241;49.260;10.496;2023-05-10T01:10:46;1.52;;;1.33;;
26600;SDS011;14241;49.260;10.496;2023-05-10T01:13:14;1.60;;;1.20;;
26600;SDS011;14241;49.260;10.496;2023-05-10T01:15:43;2.33;;;1.10;;
26600;SDS011;14241;49.260;10.496;2023-05-10T01:18:09;1.35;;;1.00;;
26600;SDS011;14241;49.260;10.496;2023-05-10T01:20:37;3.92;;;1.40;;
26600;SDS011;14241;49.260;10.496;2023-05-10T01:23:30;1.45;;;1.10;;
26600;SDS011;14241;49.260;10.496;2023-05-10T01:31:22;2.03;;;1.30;;
26600;SDS011;14241;49.260;10.496;2023-05-10T01:33:54;0.85;;;0.80;;
26600;SDS011;14241;49.260;10.496;2023-05-10T01:36:31;1.67;;;0.90;;
26600;SDS011;14241;49.260;10.496;2023-05-10T01:44:16;0.52;;;0.40;;
26600;SDS011;14241;49.260;10.496;2023-05-10T01:49:13;0.57;;;0.37;;
26600;SDS011;14241;49.260;10.496;2023-05-10T01:51:50;0.40;;;0.40;;
26600;SDS011;14241;49.260;10.496;2023-05-10T01:54:17;0.40;;;0.40;;
26600;SDS011;14241;49.260;10.496;2023-05-10T01:56:44;2.13;;;0.50;;
26600;SDS011;14241;49.260;10.496;2023-05-10T01:59:15;0.40;;;0.35;;
26600;SDS011;14241;49.260;10.496;2023-05-10T02:01:41;1.17;;;0.68;;
26600;SDS011;14241;49.260;10.496;2023-05-10T02:04:07;2.00;;;0.40;;
26600;SDS011;14241;49.260;10.496;2023-05-10T02:06:34;1.88;;;0.80;;
26600;SDS011;14241;49.260;10.496;2023-05-10T02:09:00;2.05;;;0.52;;
26600;SDS011;14241;49.260;10.496;2023-05-10T02:11:26;1.25;;;0.30;;
26600;SDS011;14241;49.260;10.496;2023-05-10T02:13:52;0.60;;;0.40;;
26600;SDS011;14241;49.260;10.496;2023-05-10T02:16:18;0.68;;;0.15;;
26600;SDS011;14241;49.260;10.496;2023-05-10T02:18:46;2.10;;;0.38;;
26600;SDS011;14241;49.260;10.496;2023-05-10T02:21:12;0.10;;;0.10;;
26600;SDS011;14241;49.260;10.496;2023-05-10T02:23:38;0.80;;;0.32;;
26600;SDS011;14241;49.260;10.496;2023-05-10T02:26:03;0.30;;;0.20;;
26600;SDS011;14241;49.260;10.496;2023-05-10T02:28:30;0.45;;;0.20;;
26600;SDS011;14241;49.260;10.496;2023-05-10T02:30:56;0.25;;;0.20;;
26600;SDS011;14241;49.260;10.496;2023-05-10T02:33:22;0.50;;;0.35;;
26600;SDS011;14241;49.260;10.496;2023-05-10T02:35:48;1.58;;;0.30;;
26600;SDS011;14241;49.260;10.496;2023-05-10T02:38:14;0.52;;;0.25;;
26600;SDS011;14241;49.260;10.496;2023-05-10T02:40:41;0.70;;;0.30;;
26600;SDS011;14241;49.260;10.496;2023-05-10T02:43:09;0.77;;;0.30;;
26600;SDS011;14241;49.260;10.496;2023-05-10T02:45:36;0.38;;;0.38;;
26600;SDS011;14241;49.260;10.496;2023-05-10T02:48:04;1.98;;;0.30;;
26600;SDS011;14241;49.260;10.496;2023-05-10T02:50:30;0.40;;;0.30;;
26600;SDS011;14241;49.260;10.496;2023-05-10T02:52:59;0.98;;;0.43;;
26600;SDS011;14241;49.260;10.496;2023-05-10T02:55:26;0.35;;;0.30;;
26600;SDS011;14241;49.260;10.496;2023-05-10T02:57:58;0.80;;;0.30;;
26600;SDS011;14241;49.260;10.496;2023-05-10T03:00:24;0.20;;;0.20;;
26600;SDS011;14241;49.260;10.496;2023-05-10T03:02:49;0.73;;;0.20;;
26600;SDS011;14241;49.260;10.496;2023-05-10T03:05:15;0.28;;;0.22;;
26600;SDS011;14241;49.260;10.496;2023-05-10T03:07:40;0.63;;;0.47;;
26600;SDS011;14241;49.260;10.496;2023-05-10T03:10:05;0.65;;;0.20;;
26600;SDS011;14241;49.260;10.496;2023-05-10T03:12:33;0.30;;;0.30;;
26600;SDS011;14241;49.260;10.496;2023-05-10T03:15:06;2.20;;;0.30;;
26600;SDS011;14241;49.260;10.496;2023-05-10T03:20:38;0.17;;;0.17;;
26600;SDS011;14241;49.260;10.496;2023-05-10T03:25:44;0.43;;;0.28;;
26600;SDS011;14241;49.260;10.496;2023-05-10T03:28:12;0.32;;;0.20;;
26600;SDS011;14241;49.260;10.496;2023-05-10T03:30:38;0.30;;;0.30;;
26600;SDS011;14241;49.260;10.496;2023-05-10T03:33:04;0.20;;;0.20;;
26600;SDS011;14241;49.260;10.496;2023-05-10T03:35:29;0.30;;;0.30;;
26600;SDS011;14241;49.260;10.496;2023-05-10T03:37:54;1.20;;;0.30;;
26600;SDS011;14241;49.260;10.496;2023-05-10T03:40:20;1.00;;;0.40;;
26600;SDS011;14241;49.260;10.496;2023-05-10T03:42:45;0.80;;;0.32;;
26600;SDS011;14241;49.260;10.496;2023-05-10T03:45:10;0.63;;;0.30;;
26600;SDS011;14241;49.260;10.496;2023-05-10T03:47:35;0.85;;;0.30;;
26600;SDS011;14241;49.260;10.496;2023-05-10T03:50:01;0.45;;;0.30;;
26600;SDS011;14241;49.260;10.496;2023-05-10T03:52:26;0.20;;;0.20;;
26600;SDS011;14241;49.260;10.496;2023-05-10T03:54:52;1.60;;;0.40;;
26600;SDS011;14241;49.260;10.496;2023-05-10T03:57:17;0.22;;;0.22;;
26600;SDS011;14241;49.260;10.496;2023-05-10T03:59:42;0.93;;;0.40;;
26600;SDS011;14241;49.260;10.496;2023-05-10T04:02:07;1.07;;;0.47;;
26600;SDS011;14241;49.260;10.496;2023-05-10T04:04:32;0.38;;;0.38;;
26600;SDS011;14241;49.260;10.496;2023-05-10T04:06:58;2.07;;;0.33;;
26600;SDS011;14241;49.260;10.496;2023-05-10T04:09:23;0.35;;;0.35;;
26600;SDS011;14241;49.260;10.496;2023-05-10T04:11:48;0.40;;;0.40;;
26600;SDS011;14241;49.260;10.496;2023-05-10T04:14:13;4.63;;;0.60;;
26600;SDS011;14241;49.260;10.496;2023-05-10T04:16:39;0.75;;;0.45;;
26600;SDS011;14241;49.260;10.496;2023-05-10T04:19:04;0.55;;;0.40;;
26600;SDS011;14241;49.260;10.496;2023-05-10T04:21:29;0.45;;;0.45;;
26600;SDS011;14241;49.260;10.496;2023-05-10T04:23:55;0.98;;;0.50;;
26600;SDS011;14241;49.260;10.496;2023-05-10T04:26:20;0.67;;;0.40;;
26600;SDS011;14241;49.260;10.496;2023-05-10T04:28:47;0.55;;;0.40;;
26600;SDS011;14241;49.260;10.496;2023-05-10T04:31:12;0.57;;;0.47;;
26600;SDS011;14241;49.260;10.496;2023-05-10T04:33:37;0.60;;;0.60;;
26600;SDS011;14241;49.260;10.496;2023-05-10T04:36:02;0.73;;;0.50;;
26600;SDS011;14241;49.260;10.496;2023-05-10T04:38:28;0.63;;;0.40;;
26600;SDS011;14241;49.260;10.496;2023-05-10T04:40:53;2.75;;;0.60;;
26600;SDS011;14241;49.260;10.496;2023-05-10T04:43:18;0.67;;;0.67;;
26600;SDS011;14241;49.260;10.496;2023-05-10T04:45:44;1.17;;;0.93;;
26600;SDS011;14241;49.260;10.496;2023-05-10T04:48:09;1.23;;;0.90;;
26600;SDS011;14241;49.260;10.496;2023-05-10T04:50:34;0.60;;;0.60;;
26600;SDS011;14241;49.260;10.496;2023-05-10T04:52:59;0.70;;;0.70;;
26600;SDS011;14241;49.260;10.496;2023-05-10T04:55:25;0.90;;;0.90;;
26600;SDS011;14241;49.260;10.496;2023-05-10T04:57:51;1.48;;;1.13;;
26600;SDS011;14241;49.260;10.496;2023-05-10T05:00:17;2.42;;;1.08;;
26600;SDS011;14241;49.260;10.496;2023-05-10T05:02:43;0.82;;;0.82;;
26600;SDS011;14241;49.260;10.496;2023-05-10T05:05:09;1.45;;;1.20;;
26600;SDS011;14241;49.260;10.496;2023-05-10T05:07:34;0.87;;;0.87;;
26600;SDS011;14241;49.260;10.496;2023-05-10T05:10:00;1.50;;;1.20;;
26600;SDS011;14241;49.260;10.496;2023-05-10T05:12:25;1.10;;;1.00;;
26600;SDS011;14241;49.260;10.496;2023-05-10T05:14:50;0.90;;;0.90;;
26600;SDS011;14241;49.260;10.496;2023-05-10T05:17:15;1.33;;;1.20;;
26600;SDS011;14241;49.260;10.496;2023-05-10T05:19:41;1.35;;;1.25;;
26600;SDS011;14241;49.260;10.496;2023-05-10T05:22:06;3.20;;;1.20;;
26600;SDS011;14241;49.260;10.496;2023-05-10T05:24:35;1.80;;;1.05;;
26600;SDS011;14241;49.260;10.496;2023-05-10T05:27:01;1.23;;;1.15;;
26600;SDS011;14241;49.260;10.496;2023-05-10T05:29:26;1.27;;;1.10;;
26600;SDS011;14241;49.260;10.496;2023-05-10T05:31:52;1.43;;;0.97;;
26600;SDS011;14241;49.260;10.496;2023-05-10T05:34:17;1.10;;;1.00;;
26600;SDS011;14241;49.260;10.496;2023-05-10T05:36:42;2.25;;;1.20;;
26600;SDS011;14241;49.260;10.496;2023-05-10T05:39:07;1.50;;;1.20;;
26600;SDS011;14241;49.260;10.496;2023-05-10T05:41:32;1.47;;;1.00;;
26600;SDS011;14241;49.260;10.496;2023-05-10T05:43:58;1.10;;;0.90;;
26600;SDS011;14241;49.260;10.496;2023-05-10T05:46:23;1.45;;;0.90;;
26600;SDS011;14241;49.260;10.496;2023-05-10T05:48:48;4.40;;;1.30;;
26600;SDS011;14241;49.260;10.496;2023-05-10T05:51:14;1.00;;;0.93;;
26600;SDS011;14241;49.260;10.496;2023-05-10T05:53:39;1.10;;;1.00;;
26600;SDS011;14241;49.260;10.496;2023-05-10T05:56:04;1.20;;;1.00;;
26600;SDS011;14241;49.260;10.496;2023-05-10T05:58:29;3.60;;;1.20;;
26600;SDS011;14241;49.260;10.496;2023-05-10T06:00:54;1.77;;;1.00;;
26600;SDS011;14241;49.260;10.496;2023-05-10T06:03:20;1.10;;;1.00;;
26600;SDS011;14241;49.260;10.496;2023-05-10T06:05:46;1.17;;;1.08;;
26600;SDS011;14241;49.260;10.496;2023-05-10T06:08:11;1.58;;;1.05;;
26600;SDS011;14241;49.260;10.496;2023-05-10T06:10:37;2.70;;;1.27;;
26600;SDS011;14241;49.260;10.496;2023-05-10T06:13:02;1.92;;;1.13;;
26600;SDS011;14241;49.260;10.496;2023-05-10T06:15:27;1.80;;;1.13;;
26600;SDS011;14241;49.260;10.496;2023-05-10T06:17:52;1.35;;;1.02;;
26600;SDS011;14241;49.260;10.496;2023-05-10T06:20:18;2.65;;;1.40;;
26600;SDS011;14241;49.260;10.496;2023-05-10T06:22:43;2.03;;;1.25;;
26600;SDS011;14241;49.260;10.496;2023-05-10T06:25:08;1.08;;;1.02;;
26600;SDS011;14241;49.260;10.496;2023-05-10T06:27:34;1.83;;;1.42;;
26600;SDS011;14241;49.260;10.496;2023-05-10T06:29:59;1.50;;;1.23;;
26600;SDS011;14241;49.260;10.496;2023-05-10T06:32:24;2.10;;;1.50;;
26600;SDS011;14241;49.260;10.496;2023-05-10T06:34:50;1.40;;;1.30;;
26600;SDS011;14241;49.260;10.496;2023-05-10T06:37:15;2.95;;;1.38;;
26600;SDS011;14241;49.260;10.496;2023-05-10T06:39:40;1.50;;;1.40;;
26600;SDS011;14241;49.260;10.496;2023-05-10T06:42:05;3.63;;;1.43;;
26600;SDS011;14241;49.260;10.496;2023-05-10T06:44:31;5.70;;;1.50;;
26600;SDS011;14241;49.260;10.496;2023-05-10T06:46:56;2.35;;;1.48;;
26600;SDS011;14241;49.260;10.496;2023-05-10T06:49:21;2.03;;;1.58;;
26600;SDS011;14241;49.260;10.496;2023-05-10T06:51:47;2.17;;;1.90;;
26600;SDS011;14241;49.260;10.496;2023-05-10T06:54:12;2.35;;;1.67;;
26600;SDS011;14241;49.260;10.496;2023-05-10T06:56:37;2.72;;;1.33;;
26600;SDS011;14241;49.260;10.496;2023-05-10T06:59:02;2.03;;;1.35;;
26600;SDS011;14241;49.260;10.496;2023-05-10T07:01:28;2.03;;;1.40;;
26600;SDS011;14241;49.260;10.496;2023-05-10T07:03:53;2.60;;;1.63;;
26600;SDS011;14241;49.260;10.496;2023-05-10T07:06:18;2.30;;;1.88;;
26600;SDS011;14241;49.260;10.496;2023-05-10T07:08:43;3.33;;;2.38;;
26600;SDS011;14241;49.260;10.496;2023-05-10T07:11:09;3.30;;;1.60;;
26600;SDS011;14241;49.260;10.496;2023-05-10T07:13:35;1.30;;;1.15;;
26600;SDS011;14241;49.260;10.496;2023-05-10T07:16:01;2.25;;;1.60;;
26600;SDS011;14241;49.260;10.496;2023-05-10T07:18:27;1.83;;;1.30;;
26600;SDS011;14241;49.260;10.496;2023-05-10T07:20:52;1.42;;;1.10;;
26600;SDS011;14241;49.260;10.496;2023-05-10T07:23:18;2.03;;;1.50;;
26600;SDS011;14241;49.260;10.496;2023-05-10T07:25:46;1.58;;;1.33;;
26600;SDS011;14241;49.260;10.496;2023-05-10T07:28:12;2.22;;;1.08;;
26600;SDS011;14241;49.260;10.496;2023-05-10T07:30:38;2.40;;;1.20;;
26600;SDS011;14241;49.260;10.496;2023-05-10T07:33:03;3.90;;;1.07;;
26600;SDS011;14241;49.260;10.496;2023-05-10T07:35:28;2.00;;;1.10;;
26600;SDS011;14241;49.260;10.496;2023-05-10T07:37:53;3.45;;;1.27;;
26600;SDS011;14241;49.260;10.496;2023-05-10T07:40:19;3.10;;;1.13;;
26600;SDS011;14241;49.260;10.496;2023-05-10T07:42:45;3.42;;;1.10;;
26600;SDS011;14241;49.260;10.496;2023-05-10T07:45:10;2.53;;;1.08;;
26600;SDS011;14241;49.260;10.496;2023-05-10T07:47:35;2.38;;;1.10;;
26600;SDS011;14241;49.260;10.496;2023-05-10T07:50:01;3.30;;;1.13;;
26600;SDS011;14241;49.260;10.496;2023-05-10T07:52:26;3.55;;;1.27;;
26600;SDS011;14241;49.260;10.496;2023-05-10T07:54:51;4.90;;;1.10;;
26600;SDS011;14241;49.260;10.496;2023-05-10T07:57:17;1.47;;;1.00;;
26600;SDS011;14241;49.260;10.496;2023-05-10T07:59:42;3.13;;;1.10;;
26600;SDS011;14241;49.260;10.496;2023-05-10T08:02:08;1.35;;;1.00;;
26600;SDS011;14241;49.260;10.496;2023-05-10T08:04:33;3.50;;;1.03;;
26600;SDS011;14241;49.260;10.496;2023-05-10T08:06:59;2.33;;;1.00;;
26600;SDS011;14241;49.260;10.496;2023-05-10T08:09:24;7.47;;;1.83;;
26600;SDS011;14241;49.260;10.496;2023-05-10T08:11:49;1.50;;;1.08;;
26600;SDS011;14241;49.260;10.496;2023-05-10T08:14:16;5.07;;;1.05;;
26600;SDS011;14241;49.260;10.496;2023-05-10T08:16:41;2.15;;;1.27;;
26600;SDS011;14241;49.260;10.496;2023-05-10T08:19:06;1.67;;;1.23;;
26600;SDS011;14241;49.260;10.496;2023-05-10T08:21:31;1.80;;;1.30;;
26600;SDS011;14241;49.260;10.496;2023-05-10T08:23:56;1.45;;;1.10;;
26600;SDS011;14241;49.260;10.496;2023-05-10T08:26:22;1.92;;;1.10;;
26600;SDS011;14241;49.260;10.496;2023-05-10T08:28:48;1.60;;;1.10;;
26600;SDS011;14241;49.260;10.496;2023-05-10T08:31:13;1.88;;;1.00;;
26600;SDS011;14241;49.260;10.496;2023-05-10T08:33:38;3.13;;;1.02;;
26600;SDS011;14241;49.260;10.496;2023-05-10T08:36:03;2.03;;;1.30;;
26600;SDS011;14241;49.260;10.496;2023-05-10T08:38:29;2.47;;;1.60;;
26600;SDS011;14241;49.260;10.496;2023-05-10T08:40:55;3.92;;;1.30;;
26600;SDS011;14241;49.260;10.496;2023-05-10T08:43:26;3.75;;;1.20;;
26600;SDS011;14241;49.260;10.496;2023-05-10T08:45:52;2.15;;;1.30;;
26600;SDS011;14241;49.260;10.496;2023-05-10T08:48:18;5.28;;;1.58;;
26600;SDS011;14241;49.260;10.496;2023-05-10T08:50:44;2.88;;;1.27;;
26600;SDS011;14241;49.260;10.496;2023-05-10T08:53:10;1.80;;;1.35;;
26600;SDS011;14241;49.260;10.496;2023-05-10T08:55:36;1.77;;;1.20;;
26600;SDS011;14241;49.260;10.496;2023-05-10T08:58:05;1.38;;;1.20;;
26600;SDS011;14241;49.260;10.496;2023-05-10T09:00:30;2.17;;;1.48;;
26600;SDS011;14241;49.260;10.496;2023-05-10T09:02:57;2.83;;;1.70;;
26600;SDS011;14241;49.260;10.496;2023-05-10T09:05:22;1.58;;;1.30;;
26600;SDS011;14241;49.260;10.496;2023-05-10T09:07:47;4.25;;;1.40;;
26600;SDS011;14241;49.260;10.496;2023-05-10T09:10:13;4.17;;;1.27;;
26600;SDS011;14241;49.260;10.496;2023-05-10T09:12:38;2.92;;;1.27;;
26600;SDS011;14241;49.260;10.496;2023-05-10T09:15:03;2.85;;;1.30;;
26600;SDS011;14241;49.260;10.496;2023-05-10T09:17:29;2.42;;;1.20;;
26600;SDS011;14241;49.260;10.496;2023-05-10T09:20:02;2.95;;;1.20;;
26600;SDS011;14241;49.260;10.496;2023-05-10T09:22:28;3.53;;;1.48;;
26600;SDS011;14241;49.260;10.496;2023-05-10T09:25:07;4.00;;;1.23;;
26600;SDS011;14241;49.260;10.496;2023-05-10T09:27:33;1.67;;;1.30;;
26600;SDS011;14241;49.260;10.496;2023-05-10T09:29:58;5.43;;;1.20;;
26600;SDS011;14241;49.260;10.496;2023-05-10T09:32:43;7.57;;;1.20;;
26600;SDS011;14241;49.260;10.496;2023-05-10T09:35:12;2.80;;;0.88;;
26600;SDS011;14241;49.260;10.496;2023-05-10T09:37:41;1.58;;;1.00;;
26600;SDS011;14241;49.260;10.496;2023-05-10T09:40:28;1.33;;;0.85;;
26600;SDS011;14241;49.260;10.496;2023-05-10T09:42:56;1.60;;;0.63;;
26600;SDS011;14241;49.260;10.496;2023-05-10T09:45:25;0.85;;;0.80;;
26600;SDS011;14241;49.260;10.496;2023-05-10T09:47:51;0.90;;;0.65;;
26600;SDS011;14241;49.260;10.496;2023-05-10T09:50:16;3.25;;;1.10;;
26600;SDS011;14241;49.260;10.496;2023-05-10T09:55:13;0.80;;;0.80;;
26600;SDS011;14241;49.260;10.496;2023-05-10T09:57:38;1.00;;;0.90;;
26600;SDS011;14241;49.260;10.496;2023-05-10T10:00:04;1.80;;;0.80;;
26600;SDS011;14241;49.260;10.496;2023-05-10T10:02:30;1.98;;;1.00;;
26600;SDS011;14241;49.260;10.496;2023-05-10T10:04:55;1.48;;;0.88;;
26600;SDS011;14241;49.260;10.496;2023-05-10T10:07:25;1.23;;;0.68;;
26600;SDS011;14241;49.260;10.496;2023-05-10T10:09:51;0.82;;;0.63;;
26600;SDS011;14241;49.260;10.496;2023-05-10T10:12:16;0.85;;;0.68;;
26600;SDS011;14241;49.260;10.496;2023-05-10T10:14:42;0.98;;;0.63;;
26600;SDS011;14241;49.260;10.496;2023-05-10T10:17:08;1.45;;;0.52;;
26600;SDS011;14241;49.260;10.496;2023-05-10T10:19:34;0.77;;;0.60;;
26600;SDS011;14241;49.260;10.496;2023-05-10T10:22:00;1.40;;;0.70;;
26600;SDS011;14241;49.260;10.496;2023-05-10T10:24:25;2.58;;;1.00;;
26600;SDS011;14241;49.260;10.496;2023-05-10T10:26:51;5.87;;;1.17;;
26600;SDS011;14241;49.260;10.496;2023-05-10T10:29:23;0.80;;;0.80;;
26600;SDS011;14241;49.260;10.496;2023-05-10T10:34:26;1.50;;;1.40;;
26600;SDS011;14241;49.260;10.496;2023-05-10T10:36:56;1.60;;;1.02;;
26600;SDS011;14241;49.260;10.496;2023-05-10T10:39:21;1.83;;;1.38;;
26600;SDS011;14241;49.260;10.496;2023-05-10T10:41:56;2.92;;;1.05;;
26600;SDS011;14241;49.260;10.496;2023-05-10T10:55:30;1.00;;;0.88;;
26600;SDS011;14241;49.260;10.496;2023-05-10T11:03:05;3.08;;;1.10;;
26600;SDS011;14241;49.260;10.496;2023-05-10T11:10:50;2.03;;;0.85;;
26600;SDS011;14241;49.260;10.496;2023-05-10T11:13:17;2.15;;;0.70;;
26600;SDS011;14241;49.260;10.496;2023-05-10T11:15:51;0.90;;;0.90;;
26600;SDS011;14241;49.260;10.496;2023-05-10T11:18:21;2.25;;;0.80;;
26600;SDS011;14241;49.260;10.496;2023-05-10T11:20:51;1.33;;;1.00;;
26600;SDS011;14241;49.260;10.496;2023-05-10T11:23:16;1.85;;;0.90;;
26600;SDS011;14241;49.260;10.496;2023-05-10T11:25:43;1.58;;;0.90;;
26600;SDS011;14241;49.260;10.496;2023-05-10T11:28:12;1.02;;;0.73;;
26600;SDS011;14241;49.260;10.496;2023-05-10T11:30:40;0.77;;;0.70;;
26600;SDS011;14241;49.260;10.496;2023-05-10T11:33:06;1.55;;;0.60;;
26600;SDS011;14241;49.260;10.496;2023-05-10T11:35:36;2.03;;;0.70;;
26600;SDS011;14241;49.260;10.496;2023-05-10T11:38:01;0.75;;;0.60;;
26600;SDS011;14241;49.260;10.496;2023-05-10T11:40:27;1.13;;;0.70;;
26600;SDS011;14241;49.260;10.496;2023-05-10T11:42:52;3.07;;;0.80;;
26600;SDS011;14241;49.260;10.496;2023-05-10T11:45:20;2.63;;;0.98;;
26600;SDS011;14241;49.260;10.496;2023-05-10T11:47:48;0.80;;;0.60;;
26600;SDS011;14241;49.260;10.496;2023-05-10T11:50:14;1.50;;;0.60;;
26600;SDS011;14241;49.260;10.496;2023-05-10T11:52:39;1.08;;;0.60;;
26600;SDS011;14241;49.260;10.496;2023-05-10T11:55:04;1.05;;;0.50;;
26600;SDS011;14241;49.260;10.496;2023-05-10T11:57:30;0.73;;;0.47;;
26600;SDS011;14241;49.260;10.496;2023-05-10T11:59:56;2.05;;;0.40;;
26600;SDS011;14241;49.260;10.496;2023-05-10T12:02:22;3.13;;;0.60;;
26600;SDS011;14241;49.260;10.496;2023-05-10T12:04:47;2.63;;;0.57;;
26600;SDS011;14241;49.260;10.496;2023-05-10T12:07:13;1.85;;;0.60;;
26600;SDS011;14241;49.260;10.496;2023-05-10T12:09:42;0.85;;;0.50;;
26600;SDS011;14241;49.260;10.496;2023-05-10T12:12:08;0.95;;;0.40;;
26600;SDS011;14241;49.260;10.496;2023-05-10T12:14:36;0.40;;;0.40;;
26600;SDS011;14241;49.260;10.496;2023-05-10T12:17:01;1.15;;;0.60;;
26600;SDS011;14241;49.260;10.496;2023-05-10T12:19:26;0.93;;;0.50;;
26600;SDS011;14241;49.260;10.496;2023-05-10T12:21:51;1.13;;;0.53;;
26600;SDS011;14241;49.260;10.496;2023-05-10T12:24:16;2.97;;;0.57;;
26600;SDS011;14241;49.260;10.496;2023-05-10T12:26:43;0.75;;;0.75;;
26600;SDS011;14241;49.260;10.496;2023-05-10T12:29:17;1.70;;;0.70;;
26600;SDS011;14241;49.260;10.496;2023-05-10T12:31:52;3.13;;;0.70;;
26600;SDS011;14241;49.260;10.496;2023-05-10T12:36:43;2.10;;;0.83;;
26600;SDS011;14241;49.260;10.496;2023-05-10T12:39:09;1.20;;;0.60;;
26600;SDS011;14241;49.260;10.496;2023-05-10T12:41:34;1.15;;;0.52;;
26600;SDS011;14241;49.260;10.496;2023-05-10T12:43:59;0.75;;;0.60;;
26600;SDS011;14241;49.260;10.496;2023-05-10T12:46:25;1.17;;;0.80;;
26600;SDS011;14241;49.260;10.496;2023-05-10T12:48:52;1.35;;;0.57;;
26600;SDS011;14241;49.260;10.496;2023-05-10T12:51:19;0.90;;;0.57;;
26600;SDS011;14241;49.260;10.496;2023-05-10T12:53:47;0.95;;;0.52;;
26600;SDS011;14241;49.260;10.496;2023-05-10T12:56:12;0.93;;;0.50;;
26600;SDS011;14241;49.260;10.496;2023-05-10T12:58:38;0.83;;;0.57;;
26600;SDS011;14241;49.260;10.496;2023-05-10T13:01:04;2.95;;;0.80;;
26600;SDS011;14241;49.260;10.496;2023-05-10T13:03:29;1.27;;;0.40;;
26600;SDS011;14241;49.260;10.496;2023-05-10T13:05:55;0.60;;;0.60;;
26600;SDS011;14241;49.260;10.496;2023-05-10T13:08:20;0.88;;;0.55;;
26600;SDS011;14241;49.260;10.496;2023-05-10T13:10:46;0.40;;;0.40;;
26600;SDS011;14241;49.260;10.496;2023-05-10T13:13:11;0.43;;;0.35;;
26600;SDS011;14241;49.260;10.496;2023-05-10T13:15:36;0.57;;;0.57;;
26600;SDS011;14241;49.260;10.496;2023-05-10T13:18:01;0.40;;;0.40;;
26600;SDS011;14241;49.260;10.496;2023-05-10T13:20:27;0.43;;;0.20;;
26600;SDS011;14241;49.260;10.496;2023-05-10T13:22:52;1.05;;;0.57;;
26600;SDS011;14241;49.260;10.496;2023-05-10T13:25:17;1.92;;;0.60;;
26600;SDS011;14241;49.260;10.496;2023-05-10T13:27:42;0.70;;;0.60;;
26600;SDS011;14241;49.260;10.496;2023-05-10T13:30:08;2.80;;;0.75;;
26600;SDS011;14241;49.260;10.496;2023-05-10T13:32:34;2.55;;;0.60;;
26600;SDS011;14241;49.260;10.496;2023-05-10T13:34:59;0.63;;;0.50;;
26600;SDS011;14241;49.260;10.496;2023-05-10T13:37:24;2.77;;;0.50;;
26600;SDS011;14241;49.260;10.496;2023-05-10T13:39:50;0.60;;;0.50;;
26600;SDS011;14241;49.260;10.496;2023-05-10T13:42:15;0.75;;;0.50;;
26600;SDS011;14241;49.260;10.496;2023-05-10T13:44:40;2.03;;;0.47;;
26600;SDS011;14241;49.260;10.496;2023-05-10T13:47:06;0.90;;;0.30;;
26600;SDS011;14241;49.260;10.496;2023-05-10T13:49:31;0.88;;;0.50;;
26600;SDS011;14241;49.260;10.496;2023-05-10T13:51:56;0.70;;;0.65;;
26600;SDS011;14241;49.260;10.496;2023-05-10T13:54:23;2.40;;;0.63;;
26600;SDS011;14241;49.260;10.496;2023-05-10T13:56:48;1.25;;;0.70;;
26600;SDS011;14241;49.260;10.496;2023-05-10T13:59:13;2.80;;;0.60;;
26600;SDS011;14241;49.260;10.496;2023-05-10T14:01:39;1.88;;;0.40;;
26600;SDS011;14241;49.260;10.496;2023-05-10T14:04:04;1.88;;;0.60;;
26600;SDS011;14241;49.260;10.496;2023-05-10T14:06:30;1.10;;;0.40;;
26600;SDS011;14241;49.260;10.496;2023-05-10T14:08:55;2.45;;;0.70;;
26600;SDS011;14241;49.260;10.496;2023-05-10T14:11:21;4.57;;;0.68;;
26600;SDS011;14241;49.260;10.496;2023-05-10T14:13:46;0.40;;;0.40;;
26600;SDS011;14241;49.260;10.496;2023-05-10T14:16:11;2.53;;;1.30;;
26600;SDS011;14241;49.260;10.496;2023-05-10T14:18:38;0.57;;;0.50;;
26600;SDS011;14241;49.260;10.496;2023-05-10T14:21:03;1.08;;;0.55;;
26600;SDS011;14241;49.260;10.496;2023-05-10T14:23:28;2.53;;;0.50;;
26600;SDS011;14241;49.260;10.496;2023-05-10T14:25:54;1.30;;;0.50;;
26600;SDS011;14241;49.260;10.496;2023-05-10T14:28:19;0.45;;;0.40;;
26600;SDS011;14241;49.260;10.496;2023-05-10T14:30:45;2.58;;;0.45;;
26600;SDS011;14241;49.260;10.496;2023-05-10T14:33:11;2.70;;;0.75;;
26600;SDS011;14241;49.260;10.496;2023-05-10T14:35:36;0.68;;;0.50;;
26600;SDS011;14241;49.260;10.496;2023-05-10T14:38:02;0.85;;;0.40;;
26600;SDS011;14241;49.260;10.496;2023-05-10T14:40:30;2.30;;;0.47;;
26600;SDS011;14241;49.260;10.496;2023-05-10T14:42:56;0.90;;;0.50;;
26600;SDS011;14241;49.260;10.496;2023-05-10T14:45:21;1.15;;;0.52;;
26600;SDS011;14241;49.260;10.496;2023-05-10T14:47:47;2.13;;;0.60;;
26600;SDS011;14241;49.260;10.496;2023-05-10T14:50:12;1.10;;;0.50;;
26600;SDS011;14241;49.260;10.496;2023-05-10T14:52:38;1.70;;;0.57;;
26600;SDS011;14241;49.260;10.496;2023-05-10T14:55:03;1.97;;;0.40;;
26600;SDS011;14241;49.260;10.496;2023-05-10T14:57:28;0.82;;;0.63;;
26600;SDS011;14241;49.260;10.496;2023-05-10T14:59:54;1.00;;;0.57;;
26600;SDS011;14241;49.260;10.496;2023-05-10T15:02:20;1.60;;;0.40;;
26600;SDS011;14241;49.260;10.496;2023-05-10T15:04:45;0.77;;;0.37;;
26600;SDS011;14241;49.260;10.496;2023-05-10T15:07:10;1.42;;;0.40;;
26600;SDS011;14241;49.260;10.496;2023-05-10T15:09:39;0.80;;;0.40;;
26600;SDS011;14241;49.260;10.496;2023-05-10T15:12:04;1.00;;;0.50;;
26600;SDS011;14241;49.260;10.496;2023-05-10T15:14:30;0.47;;;0.43;;